Time;durP1;ratioP1;P1;durP2;ratioP2;P2;SDS_P1;SDS_P2;PMS_P1;PMS_P2;Temp;Humidity;BMP_temperature;BMP_pressure;BME280_temperature;BME280_humidity;BME280_pressure;Samples;Min_cycle;Max_cycle;Signal;HPM_P1;HPM_P2
2021/04/22 06:59:01;;;;;;;54.05;30.23;;;;;;;10.21;78.81;100855.59;5804726;23;20060;-82
2021/04/22 07:01:27;;;;;;;56.88;30.02;;;;;;;10.36;78.24;100847.22;4885198;29;20450;-78
2021/04/22 07:03:53;;;;;;;58.90;30.38;;;;;;;10.45;77.87;100853.06;4904489;29;20028;-80
2021/04/22 07:06:18;;;;;;;55.42;29.70;;;;;;;10.66;77.52;100853.75;4883024;29;20039;-80
2021/04/22 07:08:44;;;;;;;50.85;27.80;;;;;;;10.78;77.45;100859.81;4885831;29;20084;-81
2021/04/22 07:11:10;;;;;;;52.58;29.25;;;;;;;10.88;77.29;100859.72;4866206;29;20033;-80
2021/04/22 07:13:35;;;;;;;53.13;29.83;;;;;;;10.89;76.26;100866.13;4883134;29;20036;-80
2021/04/22 07:16:01;;;;;;;46.80;27.55;;;;;;;11.08;75.92;100874.63;4886760;29;20035;-81
2021/04/22 07:18:26;;;;;;;51.38;27.20;;;;;;;11.21;75.59;100873.16;4870530;29;20028;-81
2021/04/22 07:20:52;;;;;;;48.67;28.63;;;;;;;11.26;75.26;100865.59;4842117;29;20028;-80
2021/04/22 07:23:17;;;;;;;51.10;26.67;;;;;;;11.46;75.20;100872.09;4856229;29;20482;-81
2021/04/22 07:25:43;;;;;;;48.92;26.02;;;;;;;11.61;74.26;100860.84;4839760;29;20033;-81
2021/04/22 07:28:09;;;;;;;52.15;27.23;;;;;;;11.72;74.45;100873.53;4840768;29;20032;-81
2021/04/22 07:30:36;;;;;;;44.05;25.52;;;;;;;11.91;73.81;100876.44;4886782;29;20033;-81
2021/04/22 07:33:02;;;;;;;42.30;26.05;;;;;;;12.04;72.68;100863.78;4869227;29;20032;-81
2021/04/22 07:35:27;;;;;;;45.08;26.10;;;;;;;12.19;72.53;100874.72;4871064;29;20047;-80
2021/04/22 07:37:53;;;;;;;46.70;27.02;;;;;;;12.21;72.22;100875.28;4839995;29;20036;-81
2021/04/22 07:40:20;;;;;;;42.40;25.25;;;;;;;12.42;71.21;100878.63;4869117;29;20080;-81
2021/04/22 07:42:46;;;;;;;46.03;26.50;;;;;;;12.40;70.57;100885.66;4885004;29;20393;-81
2021/04/22 07:45:12;;;;;;;46.50;26.75;;;;;;;12.50;70.41;100882.72;4868409;29;20059;-81
2021/04/22 07:47:38;;;;;;;44.90;26.70;;;;;;;12.57;70.17;100891.56;4854120;29;20446;-80
2021/04/22 07:50:11;;;;;;;49.22;25.88;;;;;;;12.75;70.20;100889.91;4840272;29;20032;-82
2021/04/22 07:52:36;;;;;;;46.28;26.40;;;;;;;12.67;69.71;100899.75;4868912;29;20056;-81
2021/04/22 07:55:05;;;;;;;46.70;25.30;;;;;;;12.93;69.31;100894.69;4886047;29;20036;-81
2021/04/22 07:57:31;;;;;;;43.15;24.40;;;;;;;13.07;69.48;100893.94;4868083;29;20108;-79
2021/04/22 07:59:56;;;;;;;44.40;26.55;;;;;;;13.10;68.74;100888.59;4854220;29;20040;-79
2021/04/22 08:02:22;;;;;;;45.05;25.48;;;;;;;13.28;68.68;100894.47;4855230;29;20037;-79
2021/04/22 08:04:48;;;;;;;44.17;24.35;;;;;;;13.38;68.46;100892.34;4869555;29;20033;-78
2021/04/22 08:07:20;;;;;;;41.50;25.58;;;;;;;13.34;67.90;100893.25;4879104;29;20099;-76
2021/04/22 08:09:55;;;;;;;44.83;25.67;;;;;;;13.48;67.89;100890.53;4857098;29;20044;-78
2021/04/22 08:12:20;;;;;;;44.22;25.23;;;;;;;13.64;68.22;100887.16;4863703;29;20055;-83
2021/04/22 08:14:46;;;;;;;44.92;25.48;;;;;;;13.72;68.08;100893.19;4870069;29;20457;-76
2021/04/22 08:17:11;;;;;;;44.13;24.92;;;;;;;13.86;67.21;100888.47;4884620;29;20037;-75
2021/04/22 08:19:37;;;;;;;61.33;24.90;;;;;;;13.99;66.91;100896.06;4901440;29;20029;-75
2021/04/22 10:22:47;;;;;;;41.88;21.95;;;;;;;17.32;59.27;100941.00;5997944;23;20027;31
2021/04/22 10:25:18;;;;;;;41.00;24.17;;;;;;;17.36;58.84;100930.78;4878768;29;20525;-79
2021/04/22 10:27:47;;;;;;;43.55;24.95;;;;;;;17.19;58.94;100938.03;4846476;29;20041;-81
2021/04/22 10:30:23;;;;;;;38.13;23.50;;;;;;;17.19;58.96;100935.22;4841370;29;20162;-80
2021/04/22 10:32:49;;;;;;;40.70;24.70;;;;;;;17.20;59.66;100928.44;4832815;29;20037;-80
2021/04/22 10:35:25;;;;;;;38.08;23.50;;;;;;;17.46;58.63;100933.25;4862429;29;20494;-81
2021/04/22 10:37:53;;;;;;;36.47;23.17;;;;;;;17.53;58.15;100925.16;4864545;29;20085;-82
2021/04/22 10:40:20;;;;;;;38.72;23.95;;;;;;;17.36;58.77;100925.19;4845987;29;20124;-80
2021/04/22 10:42:46;;;;;;;39.55;23.48;;;;;;;17.44;58.62;100932.78;4854857;29;20112;-80
2021/04/22 10:45:13;;;;;;;42.85;25.25;;;;;;;17.47;58.60;100928.44;4864722;29;20045;-80
2021/04/22 10:47:39;;;;;;;36.70;23.77;;;;;;;17.34;58.38;100928.31;4864408;29;20048;-81
2021/04/22 10:50:30;;;;;;;39.70;25.58;;;;;;;17.33;58.38;100935.09;4864295;29;20033;-79
2021/04/22 10:52:57;;;;;;;38.10;23.48;;;;;;;17.56;58.17;100930.13;4851205;29;20498;-81
2021/04/22 10:55:34;;;;;;;38.70;24.20;;;;;;;17.70;58.78;100938.38;4861556;29;20029;-80
2021/04/22 10:58:32;;;;;;;37.42;21.83;;;;;;;17.84;58.06;100927.81;4862514;29;20095;-82
2021/04/22 11:00:59;;;;;;;41.35;24.42;;;;;;;17.85;58.50;100929.44;4853176;29;20045;-80
2021/04/22 11:03:39;;;;;;;40.05;24.23;;;;;;;18.09;57.25;100926.09;4865547;29;20033;-79
2021/04/22 11:06:15;;;;;;;38.92;23.50;;;;;;;18.03;56.81;100927.44;4876722;29;20045;-80
2021/04/22 11:08:48;;;;;;;38.22;22.88;;;;;;;18.26;57.02;100925.22;4882523;29;20522;-82
2021/04/22 11:11:16;;;;;;;39.08;23.33;;;;;;;18.34;56.40;100919.91;4882403;29;20029;-80
2021/04/22 11:13:43;;;;;;;41.03;25.25;;;;;;;18.30;56.34;100926.22;4874676;29;20085;-79
2021/04/22 11:16:08;;;;;;;34.85;22.77;;;;;;;18.46;56.60;100923.63;4867285;29;20056;-80
2021/04/22 11:18:35;;;;;;;39.80;23.75;;;;;;;18.52;56.50;100922.28;4844588;29;20044;-81
2021/04/22 11:21:00;;;;;;;41.38;25.98;;;;;;;18.46;54.91;100929.25;4844068;29;20054;-80
2021/04/22 11:23:27;;;;;;;46.58;26.80;;;;;;;18.29;54.37;100918.09;4838310;29;20447;-80
2021/04/22 11:25:54;;;;;;;41.03;26.08;;;;;;;18.43;54.92;100918.69;4850637;29;20064;-81
2021/04/22 11:28:29;;;;;;;40.70;24.10;;;;;;;18.66;54.85;100915.59;4863168;29;20037;-81
2021/04/22 11:31:12;;;;;;;38.38;25.02;;;;;;;18.78;56.00;100907.31;4850591;29;20076;-81
2021/04/22 11:33:38;;;;;;;54.30;26.87;;;;;;;18.54;55.46;100919.97;4846802;29;20060;-81
2021/04/22 11:36:11;;;;;;;43.03;26.63;;;;;;;18.60;56.06;100912.16;4837449;29;20041;-80
2021/04/22 11:38:58;;;;;;;40.95;25.40;;;;;;;18.68;54.79;100916.09;4850989;29;20060;-81
2021/04/22 11:41:29;;;;;;;40.35;24.83;;;;;;;18.80;55.20;100916.22;4837270;29;20034;-81
2021/04/22 11:44:06;;;;;;;34.60;23.80;;;;;;;18.93;54.91;100903.06;4822028;29;20048;-80
2021/04/22 11:46:50;;;;;;;36.80;24.40;;;;;;;18.99;55.44;100907.34;4851292;29;20506;-80
2021/04/22 11:49:29;;;;;;;42.47;26.02;;;;;;;18.88;55.62;100901.28;4847110;29;20061;-79
2021/04/22 11:51:55;;;;;;;39.03;24.52;;;;;;;19.03;55.40;100901.84;4874371;29;20045;-79
2021/04/22 11:54:31;;;;;;;40.25;26.05;;;;;;;19.18;53.10;100898.44;4847367;29;20048;-79
2021/04/22 11:57:04;;;;;;;36.70;25.35;;;;;;;19.30;53.91;100897.66;4861274;29;20022;-84
2021/04/22 11:59:43;;;;;;;;;;;;;;;;;;;;;
2021/04/22 12:02:12;;;;;;;38.45;25.17;;;;;;;19.37;53.40;100904.41;4864697;29;20048;-83
2021/04/22 12:04:42;;;;;;;39.97;25.85;;;;;;;19.33;54.10;100894.97;4846672;29;20037;-82
2021/04/22 12:07:10;;;;;;;42.40;25.98;;;;;;;19.34;53.32;100895.81;4866016;29;20037;-83
2021/04/22 12:09:37;;;;;;;41.20;27.55;;;;;;;19.17;52.91;100896.78;4856756;29;20060;-83
2021/04/22 12:12:14;;;;;;;37.38;26.73;;;;;;;19.12;53.45;100899.81;4841179;29;20622;-82
2021/04/22 12:14:40;;;;;;;36.13;25.55;;;;;;;19.28;53.18;100892.41;4854970;29;20325;-82
2021/04/22 12:17:05;;;;;;;39.33;26.42;;;;;;;19.20;52.34;100896.91;4850103;29;20071;-82
2021/04/22 12:19:31;;;;;;;38.67;26.80;;;;;;;19.11;52.76;100896.16;4849560;29;20042;-82
2021/04/22 12:22:01;;;;;;;40.28;26.67;;;;;;;19.02;53.10;100891.75;4881539;29;20033;-82
2021/04/22 12:24:28;;;;;;;40.97;27.50;;;;;;;19.17;53.80;100888.34;4832820;29;20550;-82
2021/04/22 12:26:54;;;;;;;38.25;26.42;;;;;;;19.15;54.45;100893.47;4876055;29;20065;-82
2021/04/22 12:29:20;;;;;;;40.72;26.25;;;;;;;19.35;53.76;100892.66;4852322;29;20443;-82
2021/04/22 12:31:51;;;;;;;35.80;25.38;;;;;;;19.57;53.62;100888.66;4848701;29;20029;-82
2021/04/22 12:34:24;;;;;;;33.08;24.38;;;;;;;19.64;51.77;100896.56;4846865;29;20391;-82
2021/04/22 12:36:56;;;;;;;34.55;24.67;;;;;;;19.64;51.07;100894.56;4847645;29;20037;-82
2021/04/22 12:39:24;;;;;;;36.20;24.20;;;;;;;19.63;49.88;100892.06;4858523;29;20036;-83
2021/04/22 12:41:50;;;;;;;34.58;24.33;;;;;;;19.57;49.38;100901.91;4851511;29;20108;-82
2021/04/22 12:44:19;;;;;;;34.25;23.30;;;;;;;19.71;49.91;100899.66;4849334;29;20080;-82
2021/04/22 12:46:44;;;;;;;36.03;25.63;;;;;;;19.64;49.33;100890.91;4861471;29;20036;-82
2021/04/22 12:49:16;;;;;;;31.58;23.00;;;;;;;19.74;49.67;100889.69;4864194;29;20056;-83
2021/04/22 12:51:42;;;;;;;29.45;21.98;;;;;;;19.74;48.87;100887.69;4850962;29;20058;-83
2021/04/22 12:54:08;;;;;;;32.05;22.88;;;;;;;19.84;49.80;100880.78;4845659;29;20029;-84
2021/04/22 12:56:34;;;;;;;38.25;26.17;;;;;;;19.80;48.81;100886.28;4834793;29;20123;-82
2021/04/22 12:59:04;;;;;;;33.47;23.25;;;;;;;19.93;49.43;100903.25;4855098;29;20750;-83
2021/04/22 13:01:32;;;;;;;34.78;24.23;;;;;;;19.83;48.95;100896.84;4833135;29;20056;-82
2021/04/22 13:04:00;;;;;;;35.03;22.48;;;;;;;19.89;48.93;100893.81;4843692;29;20029;-84
2021/04/22 13:06:30;;;;;;;31.00;23.27;;;;;;;19.89;48.96;100893.81;4852789;29;20494;-82
2021/04/22 13:09:06;;;;;;;33.30;22.77;;;;;;;19.93;48.56;100898.44;4847712;29;20045;-83
2021/04/22 13:11:35;;;;;;;36.38;24.20;;;;;;;19.95;48.28;100898.09;4834429;29;20033;-83
2021/04/22 13:14:03;;;;;;;30.90;23.23;;;;;;;20.04;49.45;100893.16;4850218;29;20064;-82
2021/04/22 13:16:30;;;;;;;35.10;24.02;;;;;;;20.00;48.67;100895.88;4850642;29;20119;-82
2021/04/22 13:18:58;;;;;;;33.00;22.15;;;;;;;19.95;48.63;100909.38;4879257;29;20073;-83
2021/04/22 13:21:27;;;;;;;29.80;21.90;;;;;;;20.01;48.41;100896.69;4849412;29;20033;-82
2021/04/22 13:23:56;;;;;;;35.45;23.08;;;;;;;20.01;49.11;100885.41;4863184;29;20124;-84
2021/04/22 13:26:31;;;;;;;28.23;21.02;;;;;;;20.02;48.56;100895.50;4845735;29;20037;-82
2021/04/22 13:29:16;;;;;;;30.75;20.98;;;;;;;19.93;48.54;100897.59;4864347;29;20044;-83
2021/04/22 13:31:51;;;;;;;26.88;20.27;;;;;;;19.96;48.39;100905.38;4834647;29;20085;-82
2021/04/22 13:34:18;;;;;;;28.17;19.73;;;;;;;20.00;47.94;100895.03;4865088;29;20039;-85
2021/04/22 13:36:57;;;;;;;27.60;21.10;;;;;;;19.96;48.45;100892.09;4850683;29;20558;-85
2021/04/22 13:39:27;;;;;;;32.83;21.75;;;;;;;19.84;47.62;100897.72;4873034;29;20116;-84
2021/04/22 13:41:53;;;;;;;32.67;19.52;;;;;;;19.99;48.06;100897.03;4877930;29;20124;-83
2021/04/22 13:44:19;;;;;;;29.25;21.00;;;;;;;19.96;46.87;100885.63;4886400;29;20064;-86
2021/04/22 13:46:59;;;;;;;28.13;21.35;;;;;;;19.98;47.87;100894.56;4847698;29;20037;-85
2021/04/22 13:49:29;;;;;;;28.48;20.67;;;;;;;20.07;47.84;100884.81;4881382;29;20109;-84
2021/04/22 13:52:10;;;;;;;28.05;20.02;;;;;;;20.07;48.66;100884.00;4848500;29;20052;-84
2021/04/22 13:54:46;;;;;;;28.52;19.88;;;;;;;20.00;48.73;100889.38;4862603;29;20072;-83
2021/04/22 13:57:20;;;;;;;29.40;20.63;;;;;;;20.04;48.53;100879.91;4844616;29;20037;-84
2021/04/22 13:59:48;;;;;;;33.33;22.05;;;;;;;19.83;47.90;100879.94;4851426;29;20467;-80
2021/04/22 14:02:14;;;;;;;27.40;18.95;;;;;;;19.99;47.87;100873.66;4841148;29;20038;-80
2021/04/22 14:04:40;;;;;;;26.05;18.63;;;;;;;20.06;47.88;100873.91;4830850;29;20092;-80
2021/04/22 14:07:05;;;;;;;26.50;18.33;;;;;;;20.10;48.92;100872.03;4852666;29;20284;-81
2021/04/22 14:09:33;;;;;;;29.08;20.30;;;;;;;20.15;48.36;100866.16;4850922;29;20029;-81
2021/04/22 14:12:05;;;;;;;26.83;19.30;;;;;;;20.17;48.29;100865.81;4850444;29;20029;-81
2021/04/22 14:14:30;;;;;;;27.02;20.27;;;;;;;20.16;48.82;100870.63;4873344;29;20033;-82
2021/04/22 14:16:56;;;;;;;28.98;18.35;;;;;;;20.15;47.77;100856.91;4856120;29;20041;-81
2021/04/22 14:19:23;;;;;;;26.27;17.42;;;;;;;20.26;48.59;100864.53;4848500;29;20051;-82
2021/04/22 14:21:49;;;;;;;28.90;17.73;;;;;;;20.33;47.23;100861.13;4848831;29;20044;-82
2021/04/22 14:24:15;;;;;;;27.20;20.27;;;;;;;20.38;47.66;100860.91;4862879;29;20068;-81
2021/04/22 14:26:41;;;;;;;27.83;21.27;;;;;;;20.25;47.75;100857.25;4847637;29;20123;-81
2021/04/22 14:29:07;;;;;;;29.25;22.30;;;;;;;20.07;48.26;100858.63;4849680;29;20036;-81
2021/04/22 14:31:34;;;;;;;24.63;18.05;;;;;;;20.18;47.98;100857.00;4878638;29;20088;-81
2021/04/22 14:34:01;;;;;;;24.60;17.92;;;;;;;20.10;47.63;100869.22;4834222;29;20071;-81
2021/04/22 14:36:26;;;;;;;22.52;16.73;;;;;;;20.15;47.67;100852.06;4849522;29;20029;-80
2021/04/22 14:38:52;;;;;;;23.08;16.90;;;;;;;20.19;47.09;100864.28;4837813;29;20555;-80
2021/04/22 14:41:18;;;;;;;23.40;16.50;;;;;;;20.18;47.17;100851.38;4847772;29;20041;-81
2021/04/22 14:43:43;;;;;;;23.85;17.23;;;;;;;20.07;47.40;100859.47;4864000;29;20057;-81
2021/04/22 14:46:09;;;;;;;27.63;19.27;;;;;;;19.99;47.39;100859.56;4852442;29;20088;-81
2021/04/22 14:48:34;;;;;;;24.20;17.33;;;;;;;20.06;48.58;100855.00;4848940;29;20062;-81
2021/04/22 14:51:00;;;;;;;22.65;16.48;;;;;;;20.09;48.11;100853.47;4863098;29;20040;-81
2021/04/22 14:53:26;;;;;;;27.55;16.00;;;;;;;20.03;46.90;100861.34;4847800;29;20041;-84
2021/04/22 14:55:55;;;;;;;24.38;15.20;;;;;;;20.05;47.30;100852.53;4856588;29;20094;-83
2021/04/22 14:58:23;;;;;;;21.42;15.77;;;;;;;20.05;47.72;100853.34;4839773;29;20037;-81
2021/04/22 15:00:51;;;;;;;25.70;19.10;;;;;;;20.07;48.44;100853.00;4862244;29;20661;-81
2021/04/22 15:34:03;;;;;;;19.00;13.55;;;;;;;19.87;45.18;100840.63;5369588;23;20048;-75
2021/04/22 15:36:28;;;;;;;21.00;13.93;;;;;;;19.89;45.95;100843.91;4891508;29;20052;-77
2021/04/22 15:38:54;;;;;;;19.13;14.52;;;;;;;19.86;46.32;100841.78;4899730;29;20645;-78
2021/04/22 15:41:20;;;;;;;21.65;16.17;;;;;;;19.88;46.82;100835.81;4909137;29;20068;-78
2021/04/22 15:43:45;;;;;;;21.63;14.20;;;;;;;19.88;46.80;100835.81;4885439;29;20048;-78
2021/04/22 15:46:11;;;;;;;22.50;15.73;;;;;;;19.93;47.48;100835.59;4901716;29;20036;-78
2021/04/22 15:48:36;;;;;;;21.30;15.48;;;;;;;19.94;47.67;100837.22;4901230;29;20088;-78
2021/04/22 15:51:02;;;;;;;22.50;14.77;;;;;;;19.97;47.50;100840.16;4901975;29;20040;-78
2021/04/22 15:53:28;;;;;;;20.17;13.85;;;;;;;19.92;45.93;100848.03;4901467;29;20053;-78
2021/04/22 15:55:53;;;;;;;20.35;14.95;;;;;;;19.77;46.06;100841.06;4889260;29;20024;-78
2021/04/22 15:58:19;;;;;;;18.73;14.45;;;;;;;19.76;46.57;100845.91;4885718;29;20048;-78
2021/04/22 16:00:45;;;;;;;19.05;13.90;;;;;;;19.72;47.00;100844.94;4883244;29;20029;-78
2021/04/22 16:03:12;;;;;;;27.70;16.60;;;;;;;19.50;47.85;100839.66;4900723;29;20037;-78
2021/04/22 16:05:38;;;;;;;21.45;14.35;;;;;;;19.52;47.25;100840.16;4885018;29;20037;-78
2021/04/22 16:08:04;;;;;;;19.42;13.95;;;;;;;19.40;46.95;100838.94;4901174;29;20047;-78
2021/04/22 16:10:29;;;;;;;20.63;13.82;;;;;;;19.31;46.95;100845.81;4901158;29;20025;-78
2021/04/22 16:12:55;;;;;;;21.90;15.00;;;;;;;19.07;46.80;100836.06;4901645;29;20490;-78
2021/04/22 16:15:20;;;;;;;22.50;14.32;;;;;;;19.12;47.25;100844.31;4901031;29;20497;-78
2021/04/22 16:17:46;;;;;;;23.05;15.07;;;;;;;19.02;47.48;100839.09;4900732;29;20028;-78
2021/04/22 16:20:12;;;;;;;24.55;14.50;;;;;;;19.05;48.17;100837.59;4901335;29;20044;-78
2021/04/22 16:22:38;;;;;;;18.85;13.77;;;;;;;18.96;47.94;100841.28;4900948;29;20036;-78
2021/04/22 16:25:05;;;;;;;20.70;14.48;;;;;;;18.94;48.84;100834.34;4882316;29;20079;-78
2021/04/22 16:27:30;;;;;;;22.02;15.48;;;;;;;18.90;48.96;100837.03;4901416;29;20482;-77
2021/04/22 16:29:56;;;;;;;20.85;15.68;;;;;;;18.89;48.84;100837.41;4901349;29;20063;-78
2021/04/22 16:32:22;;;;;;;23.13;17.27;;;;;;;18.84;49.68;100837.59;4901541;29;20104;-77
2021/04/22 16:34:47;;;;;;;21.83;15.15;;;;;;;18.75;49.28;100840.47;4901112;29;20077;-77
2021/04/22 16:37:24;;;;;;;20.25;14.00;;;;;;;18.74;49.36;100841.63;4867879;29;20084;-80
2021/04/22 16:39:58;;;;;;;24.13;14.57;;;;;;;18.66;48.70;100842.47;4857037;29;20079;-79
2021/04/22 16:42:27;;;;;;;19.02;14.07;;;;;;;18.58;48.77;100846.16;4865956;29;20080;-80
2021/04/22 16:44:53;;;;;;;22.05;15.52;;;;;;;18.48;48.80;100839.78;4867679;29;20404;-80
2021/04/22 16:47:18;;;;;;;22.10;15.55;;;;;;;18.47;48.88;100837.28;4851669;29;20049;-80
2021/04/22 16:49:44;;;;;;;21.00;15.95;;;;;;;18.40;49.43;100851.88;4854365;29;20039;-79
2021/04/22 16:52:10;;;;;;;24.90;16.27;;;;;;;18.34;49.42;100855.25;4872487;29;20044;-79
2021/04/22 16:54:35;;;;;;;25.58;16.83;;;;;;;18.25;49.96;100850.47;4853153;29;20032;-78
2021/04/22 16:57:01;;;;;;;30.35;18.65;;;;;;;18.13;50.15;100850.34;4867427;29;20505;-78
2021/04/22 16:59:26;;;;;;;22.42;16.67;;;;;;;18.00;50.26;100841.00;4845321;29;20039;-79
2021/04/22 17:01:52;;;;;;;22.25;15.40;;;;;;;18.04;50.16;100853.19;4841918;29;20455;-79
2021/04/22 17:04:17;;;;;;;23.45;16.20;;;;;;;17.97;49.81;100861.34;4849658;29;20538;-78
2021/04/22 17:06:46;;;;;;;21.02;15.13;;;;;;;17.95;49.82;100851.59;4857593;29;20033;-79
2021/04/22 17:09:12;;;;;;;22.38;15.35;;;;;;;17.91;50.76;100857.03;4867441;29;20048;-80
2021/04/22 17:11:38;;;;;;;20.75;15.85;;;;;;;17.85;50.38;100859.22;4821469;29;20047;-79
2021/04/22 17:14:14;;;;;;;24.25;14.75;;;;;;;17.84;50.53;100862.38;4854059;29;20064;-84
2021/04/22 17:16:59;;;;;;;24.35;16.95;;;;;;;17.76;50.62;100866.00;4867276;29;20158;-79
2021/04/22 17:19:27;;;;;;;21.73;15.88;;;;;;;17.73;50.93;100866.66;4843029;29;20100;-79
2021/04/22 17:21:56;;;;;;;22.08;15.93;;;;;;;17.68;51.21;100861.22;4837197;29;20138;-81
2021/04/22 17:24:42;;;;;;;23.95;17.27;;;;;;;17.61;51.55;100865.34;4854949;29;20028;-79
2021/04/22 17:27:42;;;;;;;25.95;18.48;;;;;;;17.55;52.02;100860.22;4845579;29;20501;-80
2021/04/22 17:30:21;;;;;;;24.00;16.95;;;;;;;17.48;51.89;100855.13;4863439;29;20029;-79
2021/04/22 17:34:05;;;;;;;;;;;;;;;;;;;;;
2021/04/22 17:37:06;;;;;;;23.75;17.10;;;;;;;17.46;52.09;100854.63;4856484;29;20129;-80
2021/04/22 17:40:01;;;;;;;21.80;16.08;;;;;;;17.39;52.32;100857.97;4866967;29;20125;-80
2021/04/22 17:42:42;;;;;;;23.92;16.70;;;;;;;17.38;52.18;100863.88;4853009;29;20046;-80
2021/04/22 17:45:36;;;;;;;26.98;18.77;;;;;;;17.26;52.75;100869.34;4854432;29;20045;-79
2021/04/22 17:48:33;;;;;;;23.45;17.70;;;;;;;17.26;52.55;100863.75;4871115;29;20044;-79
2021/04/22 17:51:08;;;;;;;23.98;16.42;;;;;;;17.25;52.46;100867.72;4856488;29;20123;-80
2021/04/22 17:54:18;;;;;;;23.75;16.45;;;;;;;17.16;52.36;100864.88;4826163;29;20116;-80
2021/04/22 17:57:57;;;;;;;25.90;17.17;;;;;;;17.03;52.58;100866.72;4845763;29;20045;-80
2021/04/22 18:01:20;;;;;;;21.73;15.85;;;;;;;17.01;52.69;100865.38;4867468;29;20561;-80
2021/04/22 18:04:27;;;;;;;26.20;16.30;;;;;;;16.93;52.97;100872.63;4817720;29;20077;-80
2021/04/22 18:07:00;;;;;;;27.88;18.50;;;;;;;16.79;53.39;100872.78;4829035;29;20054;-80
2021/04/22 18:09:26;;;;;;;27.42;18.08;;;;;;;16.80;53.67;100880.06;4838123;29;20471;-81
2021/04/22 18:15:35;;;;;;;27.08;18.33;;;;;;;16.65;54.12;100883.28;4867878;29;20107;-85
2021/04/22 18:18:01;;;;;;;24.45;17.70;;;;;;;16.59;54.10;100879.78;4836183;29;20042;-85
2021/04/22 18:20:27;;;;;;;26.23;18.35;;;;;;;16.62;54.15;100887.56;4816915;29;20037;-85
2021/04/22 18:29:15;;;;;;;24.88;15.57;;;;;;;16.47;54.72;100893.63;5625724;23;20056;-79
2021/04/22 18:31:42;;;;;;;23.85;16.02;;;;;;;16.41;54.97;100884.53;4902002;29;20080;-79
2021/04/22 18:34:07;;;;;;;26.05;16.60;;;;;;;16.38;55.02;100893.59;4878439;29;20505;-79
2021/04/22 18:36:33;;;;;;;26.27;18.23;;;;;;;16.27;55.46;100897.84;4869191;29;20096;-79
2021/04/22 18:38:58;;;;;;;20.95;14.85;;;;;;;16.28;55.17;100891.91;4869123;29;20036;-79
2021/04/22 18:41:24;;;;;;;22.85;16.38;;;;;;;16.19;55.68;100899.44;4897907;29;20047;-79
2021/04/22 18:43:50;;;;;;;26.73;17.90;;;;;;;16.11;56.11;100902.22;4897931;29;20024;-79
2021/04/22 18:46:15;;;;;;;25.23;18.05;;;;;;;16.05;56.07;100909.94;4885086;29;20047;-79
2021/04/22 18:48:41;;;;;;;24.70;16.42;;;;;;;16.06;56.17;100914.38;4877628;29;20040;-80
2021/04/22 18:51:06;;;;;;;25.25;16.27;;;;;;;16.00;56.31;100915.66;4883819;29;20029;-79
2021/04/22 18:53:32;;;;;;;28.05;18.55;;;;;;;15.84;56.80;100921.66;4883973;29;20041;-79
2021/04/22 18:55:59;;;;;;;25.70;16.83;;;;;;;15.80;56.50;100915.03;4901350;29;20041;-79
2021/04/22 18:58:24;;;;;;;22.58;15.65;;;;;;;15.77;56.80;100924.09;4880710;29;20065;-79
2021/04/22 19:00:50;;;;;;;25.25;16.40;;;;;;;15.74;56.83;100927.53;4894461;29;20052;-78
2021/04/22 19:03:15;;;;;;;25.63;18.25;;;;;;;15.59;57.11;100925.88;4900635;29;20095;-78
2021/04/22 19:05:41;;;;;;;25.83;18.48;;;;;;;15.46;57.56;100925.94;4899991;29;20033;-78
2021/04/22 19:08:07;;;;;;;28.48;18.08;;;;;;;15.41;57.73;100932.50;4885633;29;20029;-78
2021/04/22 19:10:32;;;;;;;27.23;17.88;;;;;;;15.32;57.66;100938.03;4893303;29;20063;-79
2021/04/22 19:12:58;;;;;;;26.52;18.05;;;;;;;15.22;57.68;100941.06;4882150;29;20044;-78
2021/04/22 19:15:25;;;;;;;26.70;18.30;;;;;;;15.15;58.00;100949.03;4886095;29;20043;-78
2021/04/22 19:17:50;;;;;;;27.02;18.10;;;;;;;15.11;58.00;100954.44;4883758;29;20044;-79
2021/04/22 19:20:16;;;;;;;23.35;16.52;;;;;;;15.08;57.74;100962.66;4896485;29;20049;-78
2021/04/22 19:22:42;;;;;;;22.20;16.10;;;;;;;15.04;57.80;100958.81;4901011;29;20103;-79
2021/04/22 19:25:09;;;;;;;22.42;14.70;;;;;;;14.97;57.54;100965.66;4880955;29;20035;-78
2021/04/22 19:27:34;;;;;;;26.00;17.17;;;;;;;14.88;58.42;100966.72;4879521;29;20112;-78
2021/04/22 19:30:00;;;;;;;25.55;16.40;;;;;;;14.80;58.05;100964.66;4884354;29;20059;-78
2021/04/22 19:32:28;;;;;;;23.73;14.57;;;;;;;14.73;58.38;100963.06;4884477;29;20024;-78
2021/04/22 19:34:54;;;;;;;20.88;16.25;;;;;;;14.61;59.53;100965.56;4881693;29;20028;-78
2021/04/22 19:37:33;;;;;;;26.88;16.25;;;;;;;14.52;59.64;100976.66;4883858;29;20037;-78
2021/04/22 19:39:59;;;;;;;24.17;15.20;;;;;;;14.53;59.49;100978.28;4900233;29;20035;-78
2021/04/22 19:42:24;;;;;;;24.17;16.45;;;;;;;14.41;59.99;100982.72;4897960;29;20048;-78
2021/04/22 19:44:50;;;;;;;22.70;15.45;;;;;;;14.34;60.32;100983.09;4883788;29;20074;-78
2021/04/22 19:47:16;;;;;;;25.10;15.77;;;;;;;14.30;60.33;100980.09;4882163;29;20033;-78
2021/04/22 19:49:41;;;;;;;25.85;15.63;;;;;;;14.25;60.27;100987.75;4883828;29;20028;-78
2021/04/22 19:52:07;;;;;;;24.20;15.30;;;;;;;14.17;60.85;100994.03;4898381;29;20037;-79
2021/04/22 19:54:32;;;;;;;21.67;14.85;;;;;;;14.09;60.49;100995.56;4902052;29;20028;-78
2021/04/22 19:57:00;;;;;;;23.15;14.40;;;;;;;14.03;61.26;100999.59;4879910;29;20497;-78
2021/04/22 19:59:25;;;;;;;25.17;15.35;;;;;;;13.90;61.60;101001.22;4882717;29;20394;-76
2021/04/22 20:13:34;;;;;;;21.67;13.82;;;;;;;13.59;62.19;101017.59;5597007;23;20058;-77
2021/04/22 20:16:00;;;;;;;27.10;14.60;;;;;;;13.53;62.27;101019.63;4830631;29;20038;-79
2021/04/22 20:18:29;;;;;;;21.50;14.20;;;;;;;13.52;62.29;101025.53;4827367;29;20090;-79
2021/04/22 20:20:55;;;;;;;21.52;13.50;;;;;;;13.49;62.21;101028.94;4847750;29;20049;-81
2021/04/22 20:23:21;;;;;;;23.60;12.93;;;;;;;13.43;61.95;101027.31;4838164;29;20468;-81
2021/04/22 20:42:38;;;;;;;;;;;;;;;;;;;;;
2021/04/22 21:27:55;;;;;;;;;;;;;;;12.15;59.51;101076.94;5190168;22;31253443;-78
2021/04/22 21:31:19;;;;;;;9.52;5.80;;;;;;;12.15;59.28;101073.31;6232354;23;19915;-78
2021/04/22 21:38:08;;;;;;;;;;;;;;;;;;;;;
2021/04/22 21:45:37;;;;;;;;;;;;;;;;;;;;;
2021/04/22 21:49:07;;;;;;;11.50;5.05;;;;;;;11.83;57.00;101075.44;6152412;23;20017;-78
2021/04/22 21:57:05;;;;;;;12.60;4.82;;;;;;;11.76;56.27;101080.53;6129450;23;20037;-79
2021/04/22 22:04:17;;;;;;;14.10;4.40;;;;;;;11.72;55.57;101092.50;6047353;23;20397;-78
2021/04/22 22:19:14;;;;;;;10.10;4.65;;;;;;;11.53;56.00;101095.13;6169983;23;20017;-79
2021/04/22 22:25:04;;;;;;;14.85;4.35;;;;;;;11.39;56.08;101104.09;6166687;22;20009;-78
2021/04/22 22:28:19;;;;;;;14.48;4.70;;;;;;;11.22;56.52;101109.16;6093914;23;20017;-78
2021/04/22 22:31:27;;;;;;;11.52;4.40;;;;;;;11.23;56.40;101109.97;6111802;23;20016;-78
2021/04/22 22:38:15;;;;;;;10.98;4.43;;;;;;;11.09;56.52;101116.16;6156578;23;20351;-78
2021/04/22 22:40:59;;;;;;;;;;;;;;;;;;;;;
2021/04/22 22:43:59;;;;;;;10.80;4.70;;;;;;;10.98;56.73;101117.31;6097476;23;20014;-78
2021/04/22 22:50:02;;;;;;;11.45;4.03;;;;;;;10.86;56.83;101112.03;6098276;23;20042;-78
2021/04/22 22:53:13;;;;;;;11.18;4.05;;;;;;;10.88;57.04;101115.38;6170193;23;20036;-78
2021/04/22 22:59:57;;;;;;;;;;;;;;;;;;;;;
2021/04/22 23:02:50;;;;;;;11.20;3.78;;;;;;;10.81;56.97;101116.78;6193865;23;20012;-78
2021/04/22 23:10:39;;;;;;;;;;;;;;;;;;;;;
2021/04/22 23:14:10;;;;;;;10.55;4.50;;;;;;;10.60;56.77;101122.38;6075946;23;20038;-79
2021/04/22 23:26:32;;;;;;;11.43;4.00;;;;;;;10.55;56.90;101121.53;6034164;23;20039;-79
